createdAt,value
2019-02-24T00:00:54.502Z,-88
2019-02-24T00:03:29.905Z,-88
2019-02-24T00:06:02.658Z,-87
2019-02-24T00:08:34.888Z,-88
2019-02-24T00:11:07.687Z,-89
2019-02-24T00:13:41.003Z,-88
2019-02-24T00:16:15.284Z,-89
2019-02-24T00:18:47.457Z,-88
2019-02-24T00:21:19.719Z,-88
2019-02-24T00:23:51.975Z,-89
2019-02-24T00:26:24.729Z,-89
2019-02-24T00:28:56.618Z,-87
2019-02-24T00:31:29.122Z,-89
2019-02-24T00:34:00.971Z,-88
2019-02-24T00:36:32.862Z,-88
2019-02-24T00:39:05.807Z,-88
2019-02-24T00:41:37.673Z,-88
2019-02-24T00:44:09.680Z,-88
2019-02-24T00:46:42.219Z,-88
2019-02-24T00:49:14.904Z,-88
2019-02-24T00:51:46.884Z,-88
2019-02-24T00:54:18.969Z,-88
2019-02-24T00:56:50.875Z,-89
2019-02-24T00:59:24.023Z,-88
2019-02-24T01:01:56.321Z,-89
2019-02-24T01:04:28.214Z,-89
2019-02-24T01:07:00.662Z,-88
2019-02-24T01:09:32.766Z,-88
2019-02-24T01:12:04.653Z,-88
2019-02-24T01:14:37.028Z,-88
2019-02-24T01:17:09.229Z,-88
2019-02-24T01:19:41.428Z,-89
2019-02-24T01:22:13.593Z,-89
2019-02-24T01:24:45.765Z,-89
2019-02-24T01:27:17.615Z,-89
2019-02-24T01:29:49.822Z,-89
2019-02-24T01:32:21.765Z,-88
2019-02-24T01:34:53.592Z,-88
2019-02-24T01:37:26.074Z,-88
2019-02-24T01:39:58.119Z,-89
2019-02-24T01:42:30.437Z,-89
2019-02-24T01:45:02.777Z,-88
2019-02-24T01:47:34.607Z,-89
2019-02-24T01:50:07.633Z,-88
2019-02-24T01:52:39.549Z,-88
2019-02-24T01:55:11.420Z,-88
2019-02-24T01:57:43.536Z,-89
2019-02-24T02:00:16.710Z,-88
2019-02-24T02:02:49.733Z,-89
2019-02-24T02:05:22.239Z,-88
2019-02-24T02:07:54.086Z,-88
2019-02-24T02:10:25.976Z,-88
2019-02-24T02:12:57.803Z,-88
2019-02-24T02:15:29.691Z,-88
2019-02-24T02:18:02.204Z,-88
2019-02-24T02:20:34.139Z,-90
2019-02-24T02:23:06.109Z,-88
2019-02-24T02:25:38.421Z,-90
2019-02-24T02:28:10.256Z,-89
2019-02-24T02:30:42.129Z,-89
2019-02-24T02:33:14.227Z,-88
2019-02-24T02:35:46.205Z,-90
2019-02-24T02:38:18.711Z,-88
2019-02-24T02:40:51.053Z,-88
2019-02-24T02:43:23.166Z,-88
2019-02-24T02:45:55.333Z,-88
2019-02-24T02:48:28.012Z,-88
2019-02-24T02:51:00.784Z,-88
2019-02-24T02:53:33.412Z,-88
2019-02-24T02:56:05.265Z,-90
2019-02-24T02:58:37.371Z,-89
2019-02-24T03:01:09.248Z,-88
2019-02-24T03:03:41.896Z,-88
2019-02-24T03:06:32.320Z,-88
2019-02-24T03:09:06.247Z,-88
2019-02-24T03:11:38.397Z,-87
2019-02-24T03:14:10.254Z,-88
2019-02-24T03:16:42.078Z,-88
2019-02-24T03:19:14.061Z,-87
2019-02-24T03:21:46.162Z,-87
2019-02-24T03:24:18.019Z,-88
2019-02-24T03:26:50.967Z,-87
2019-02-24T03:29:23.123Z,-87
2019-02-24T03:31:55.249Z,-88
2019-02-24T03:34:27.359Z,-88
2019-02-24T03:36:59.174Z,-89
2019-02-24T03:39:31.300Z,-90
2019-02-24T03:42:03.120Z,-90
2019-02-24T03:44:35.309Z,-90
2019-02-24T03:47:07.144Z,-89
2019-02-24T03:49:39.099Z,-90
2019-02-24T03:52:11.033Z,-90
2019-02-24T03:54:42.911Z,-90
2019-02-24T03:57:15.411Z,-90
2019-02-24T03:59:47.279Z,-88
2019-02-24T04:02:19.120Z,-89
2019-02-24T04:04:51.017Z,-89
2019-02-24T04:07:22.835Z,-90
2019-02-24T04:09:54.687Z,-89
2019-02-24T04:12:26.626Z,-90
2019-02-24T04:14:58.507Z,-89
2019-02-24T04:17:30.322Z,-89
2019-02-24T04:20:02.465Z,-87
2019-02-24T04:22:34.307Z,-86
2019-02-24T04:25:06.322Z,-90
2019-02-24T04:27:38.142Z,-89
2019-02-24T04:30:10.207Z,-89
2019-02-24T04:32:42.049Z,-88
2019-02-24T04:35:14.023Z,-88
2019-02-24T04:37:45.846Z,-87
2019-02-24T04:40:18.026Z,-88
2019-02-24T04:42:49.956Z,-88
2019-02-24T04:45:22.630Z,-88
2019-02-24T04:47:54.759Z,-88
2019-02-24T04:50:27.254Z,-88
2019-02-24T04:52:59.965Z,-88
2019-02-24T04:55:32.100Z,-88
2019-02-24T04:58:03.921Z,-87
2019-02-24T05:00:35.879Z,-88
2019-02-24T05:03:08.403Z,-88
2019-02-24T05:05:41.186Z,-87
2019-02-24T05:08:14.148Z,-88
2019-02-24T05:10:46.154Z,-88
2019-02-24T05:13:17.984Z,-88
2019-02-24T05:15:50.130Z,-88
2019-02-24T05:18:22.255Z,-88
2019-02-24T05:20:54.550Z,-88
2019-02-24T05:23:27.120Z,-88
2019-02-24T05:26:00.278Z,-88
2019-02-24T05:28:32.628Z,-88
2019-02-24T05:31:05.192Z,-88
2019-02-24T05:33:37.041Z,-88
2019-02-24T05:36:08.897Z,-88
2019-02-24T05:38:41.295Z,-88
2019-02-24T05:41:13.511Z,-88
2019-02-24T05:43:45.669Z,-88
2019-02-24T05:46:17.663Z,-87
2019-02-24T05:48:49.484Z,-87
2019-02-24T05:51:21.413Z,-87
2019-02-24T05:53:53.257Z,-85
2019-02-24T05:56:25.959Z,-87
2019-02-24T05:58:58.046Z,-87
2019-02-24T06:01:30.352Z,-88
2019-02-24T06:04:02.848Z,-88
2019-02-24T06:06:34.835Z,-88
2019-02-24T06:09:07.858Z,-88
2019-02-24T06:11:40.373Z,-88
2019-02-24T06:14:13.269Z,-89
2019-02-24T06:16:45.501Z,-89
2019-02-24T06:19:17.355Z,-88
2019-02-24T06:21:49.226Z,-88
2019-02-24T06:24:21.485Z,-88
2019-02-24T06:26:53.379Z,-88
2019-02-24T06:29:25.243Z,-88
2019-02-24T06:31:57.083Z,-88
2019-02-24T06:34:29.340Z,-88
2019-02-24T06:37:01.176Z,-88
2019-02-24T06:39:33.720Z,-88
2019-02-24T06:42:05.552Z,-88
2019-02-24T06:44:37.426Z,-88
2019-02-24T06:47:09.667Z,-88
2019-02-24T06:49:41.928Z,-88
2019-02-24T06:52:14.190Z,-88
2019-02-24T06:54:46.135Z,-88
2019-02-24T06:57:18.073Z,-88
2019-02-24T06:59:50.261Z,-88
2019-02-24T07:02:23.355Z,-88
2019-02-24T07:04:55.226Z,-88
2019-02-24T07:07:27.338Z,-87
2019-02-24T07:09:59.644Z,-89
2019-02-24T07:12:31.735Z,-88
2019-02-24T07:15:04.244Z,-88
2019-02-24T07:17:36.367Z,-89
2019-02-24T07:20:08.373Z,-89
2019-02-24T07:22:40.534Z,-90
2019-02-24T07:25:12.723Z,-89
2019-02-24T07:27:44.846Z,-89
2019-02-24T07:30:23.556Z,-89
2019-02-24T07:32:51.315Z,-89
2019-02-24T07:35:23.159Z,-90
2019-02-24T07:37:55.771Z,-89
2019-02-24T07:40:27.633Z,-89
2019-02-24T07:42:59.802Z,-90
2019-02-24T07:45:31.768Z,-90
2019-02-24T07:48:04.189Z,-89
2019-02-24T07:50:36.304Z,-88
2019-02-24T07:53:08.748Z,-88
2019-02-24T07:55:41.104Z,-88
2019-02-24T07:58:13.084Z,-90
2019-02-24T08:00:44.997Z,-90
2019-02-24T08:03:17.044Z,-89
2019-02-24T08:05:48.928Z,-88
2019-02-24T08:08:21.513Z,-91
2019-02-24T08:10:54.429Z,-89
2019-02-24T08:13:26.651Z,-89
2019-02-24T08:15:58.618Z,-89
2019-02-24T08:18:30.914Z,-90
2019-02-24T08:21:03.207Z,-89
2019-02-24T08:23:35.743Z,-89
2019-02-24T08:26:07.614Z,-89
2019-02-24T08:28:39.908Z,-89
2019-02-24T08:31:12.975Z,-89
2019-02-24T08:33:45.098Z,-89
2019-02-24T08:36:17.163Z,-89
2019-02-24T08:38:49.793Z,-88
2019-02-24T08:41:21.630Z,-87
2019-02-24T08:43:53.552Z,-86
2019-02-24T08:46:25.933Z,-84
2019-02-24T08:48:58.635Z,-85
2019-02-24T08:51:30.627Z,-84
2019-02-24T08:54:02.840Z,-84
2019-02-24T08:56:35.426Z,-84
2019-02-24T08:59:08.238Z,-84
2019-02-24T09:01:40.552Z,-85
2019-02-24T09:04:13.065Z,-85
2019-02-24T09:06:45.314Z,-84
2019-02-24T09:09:17.421Z,-85
2019-02-24T09:11:49.244Z,-84
2019-02-24T09:14:21.662Z,-85
2019-02-24T09:16:53.480Z,-84
2019-02-24T09:19:25.593Z,-86
2019-02-24T09:21:58.265Z,-86
2019-02-24T09:24:30.634Z,-83
2019-02-24T09:27:04.408Z,-84
2019-02-24T09:29:36.435Z,-85
2019-02-24T09:32:08.398Z,-85
2019-02-24T09:34:40.997Z,-84
2019-02-24T09:37:12.964Z,-83
2019-02-24T09:39:44.908Z,-86
2019-02-24T09:42:16.564Z,-85
2019-02-24T09:44:48.484Z,-85
2019-02-24T09:47:20.409Z,-86
2019-02-24T09:49:53.181Z,-86
2019-02-24T09:52:25.765Z,-86
2019-02-24T09:54:57.915Z,-85
2019-02-24T09:57:30.466Z,-85
2019-02-24T10:00:02.423Z,-85
2019-02-24T10:02:34.281Z,-86
2019-02-24T10:05:06.634Z,-85
2019-02-24T10:07:38.561Z,-85
2019-02-24T10:10:10.500Z,-84
2019-02-24T10:12:42.663Z,-84
2019-02-24T10:15:14.692Z,-83
2019-02-24T10:17:46.547Z,-84
2019-02-24T10:20:18.915Z,-83
2019-02-24T10:22:50.894Z,-84
2019-02-24T10:25:22.822Z,-83
2019-02-24T10:27:54.931Z,-84
2019-02-24T10:30:27.200Z,-83
2019-02-24T10:32:59.772Z,-83
2019-02-24T10:35:32.715Z,-85
2019-02-24T10:38:04.561Z,-84
2019-02-24T10:40:37.062Z,-83
2019-02-24T10:43:09.550Z,-86
2019-02-24T10:45:42.045Z,-84
2019-02-24T10:48:14.443Z,-85
2019-02-24T10:50:46.598Z,-84
2019-02-24T10:53:19.430Z,-83
2019-02-24T10:55:52.025Z,-85
2019-02-24T10:58:34.283Z,-88
2019-02-24T11:00:59.307Z,-88
2019-02-24T11:03:31.201Z,-85
2019-02-24T11:06:03.107Z,-85
2019-02-24T11:08:34.981Z,-85
2019-02-24T11:11:07.488Z,-87
2019-02-24T11:13:39.740Z,-87
2019-02-24T11:16:11.649Z,-87
2019-02-24T11:18:43.762Z,-85
2019-02-24T11:21:15.954Z,-86
2019-02-24T11:23:47.880Z,-87
2019-02-24T11:26:19.788Z,-88
2019-02-24T11:28:51.958Z,-86
2019-02-24T11:31:24.682Z,-88
2019-02-24T11:33:56.519Z,-87
2019-02-24T11:36:28.401Z,-86
2019-02-24T11:39:00.925Z,-85
2019-02-24T11:41:33.776Z,-87
2019-02-24T11:44:05.726Z,-86
2019-02-24T11:46:37.699Z,-86
2019-02-24T11:49:09.917Z,-85
2019-02-24T11:51:42.597Z,-87
2019-02-24T11:54:14.959Z,-85
2019-02-24T11:56:46.819Z,-88
2019-02-24T11:59:18.968Z,-86
2019-02-24T12:01:52.136Z,-85
2019-02-24T12:04:24.314Z,-84
2019-02-24T12:06:56.177Z,-85
2019-02-24T12:09:28.841Z,-86
2019-02-24T12:12:00.751Z,-84
2019-02-24T12:14:32.879Z,-86
2019-02-24T12:17:05.120Z,-84
2019-02-24T12:19:38.314Z,-84
2019-02-24T12:22:10.932Z,-84
2019-02-24T12:24:43.597Z,-85
2019-02-24T12:27:16.529Z,-86
2019-02-24T12:29:49.212Z,-85
2019-02-24T12:32:21.386Z,-84
2019-02-24T12:34:53.256Z,-84
2019-02-24T12:37:25.144Z,-84
2019-02-24T12:39:57.980Z,-85
2019-02-24T12:42:30.941Z,-85
2019-02-24T12:45:03.379Z,-86
2019-02-24T12:47:36.340Z,-84
2019-02-24T12:50:09.586Z,-84
2019-02-24T12:52:41.914Z,-86
2019-02-24T12:55:14.810Z,-85
2019-02-24T12:57:47.082Z,-86
2019-02-24T13:00:20.689Z,-87
2019-02-24T13:02:54.919Z,-88
2019-02-24T13:05:27.735Z,-87
2019-02-24T13:07:59.661Z,-89
2019-02-24T13:10:32.272Z,-86
2019-02-24T13:13:07.184Z,-88
2019-02-24T13:15:39.837Z,-89
2019-02-24T13:18:12.078Z,-89
2019-02-24T13:20:44.552Z,-88
2019-02-24T13:23:16.438Z,-88
2019-02-24T13:25:48.605Z,-88
2019-02-24T13:28:23.421Z,-88
2019-02-24T13:30:58.639Z,-87
2019-02-24T13:33:31.880Z,-86
2019-02-24T13:36:05.118Z,-85
2019-02-24T13:38:40.420Z,-86
2019-02-24T13:41:12.248Z,-84
2019-02-24T13:43:44.704Z,-86
2019-02-24T13:46:16.841Z,-86
2019-02-24T13:48:49.031Z,-85
2019-02-24T13:51:21.343Z,-84
2019-02-24T13:53:54.193Z,-85
2019-02-24T13:56:26.384Z,-86
2019-02-24T13:59:01.124Z,-85
2019-02-24T14:01:33.376Z,-85
2019-02-24T14:04:05.580Z,-85
2019-02-24T14:06:39.320Z,-85
2019-02-24T14:09:12.123Z,-85
2019-02-24T14:11:44.256Z,-86
2019-02-24T14:14:16.796Z,-87
2019-02-24T14:16:49.356Z,-86
2019-02-24T14:19:24.777Z,-87
2019-02-24T14:21:56.794Z,-88
2019-02-24T14:24:35.059Z,-88
2019-02-24T14:27:07.731Z,-88
2019-02-24T14:29:42.672Z,-87
2019-02-24T14:32:14.582Z,-86
2019-02-24T14:34:46.666Z,-87
2019-02-24T14:37:18.492Z,-88
2019-02-24T14:39:50.670Z,-89
2019-02-24T14:42:23.942Z,-89
2019-02-24T14:44:59.982Z,-89
2019-02-24T14:47:34.858Z,-90
2019-02-24T14:50:08.286Z,-88
2019-02-24T14:52:40.767Z,-90
2019-02-24T14:55:12.990Z,-89
2019-02-24T14:57:45.466Z,-90
2019-02-24T15:00:17.575Z,-89
2019-02-24T15:02:50.497Z,-90
2019-02-24T15:05:23.025Z,-90
2019-02-24T15:07:55.346Z,-90
2019-02-24T15:10:27.877Z,-90
2019-02-24T15:13:00.975Z,-89
2019-02-24T15:15:33.481Z,-88
2019-02-24T15:18:06.006Z,-89
2019-02-24T15:20:37.962Z,-88
2019-02-24T15:23:10.513Z,-89
2019-02-24T15:25:42.382Z,-86
2019-02-24T15:28:15.501Z,-87
2019-02-24T15:30:47.789Z,-87
2019-02-24T15:33:20.101Z,-89
2019-02-24T15:35:52.457Z,-88
2019-02-24T15:38:25.741Z,-88
2019-02-24T15:41:09.929Z,-88
2019-02-24T15:43:41.919Z,-88
2019-02-24T15:46:14.807Z,-88
2019-02-24T15:48:47.072Z,-89
2019-02-24T15:51:19.220Z,-88
2019-02-24T15:53:51.113Z,-87
2019-02-24T15:56:23.255Z,-88
2019-02-24T15:58:55.440Z,-88
2019-02-24T16:01:27.497Z,-86
2019-02-24T16:03:59.532Z,-87
2019-02-24T16:06:37.047Z,-85
2019-02-24T16:09:05.360Z,-87
2019-02-24T16:11:38.467Z,-86
2019-02-24T16:14:10.612Z,-87
2019-02-24T16:16:43.105Z,-87
2019-02-24T16:19:15.251Z,-86
2019-02-24T16:21:49.455Z,-87
2019-02-24T16:24:21.304Z,-87
2019-02-24T16:26:54.076Z,-86
2019-02-24T16:29:26.124Z,-86
2019-02-24T16:31:58.025Z,-86
2019-02-24T16:34:31.010Z,-87
2019-02-24T16:37:03.010Z,-87
2019-02-24T16:39:34.887Z,-86
2019-02-24T16:42:06.895Z,-86
2019-02-24T16:44:39.323Z,-87
2019-02-24T16:47:12.184Z,-89
2019-02-24T16:49:47.678Z,-89
2019-02-24T16:52:19.572Z,-89
2019-02-24T16:54:52.845Z,-88
2019-02-24T16:57:26.278Z,-90
2019-02-24T16:59:58.556Z,-90
2019-02-24T17:02:31.092Z,-89
2019-02-24T17:05:05.395Z,-89
2019-02-24T17:07:37.309Z,-90
2019-02-24T17:10:10.530Z,-90
2019-02-24T17:12:42.491Z,-89
2019-02-24T17:15:14.704Z,-89
2019-02-24T17:17:47.606Z,-89
2019-02-24T17:20:20.106Z,-88
2019-02-24T17:22:52.314Z,-89
2019-02-24T17:25:25.005Z,-89
2019-02-24T17:27:56.972Z,-89
2019-02-24T17:30:29.711Z,-90
2019-02-24T17:33:01.900Z,-90
2019-02-24T17:35:34.817Z,-89
2019-02-24T17:38:07.149Z,-90
2019-02-24T17:40:39.056Z,-89
2019-02-24T17:43:11.022Z,-88
2019-02-24T17:45:44.942Z,-88
2019-02-24T17:48:17.139Z,-87
2019-02-24T17:50:49.115Z,-86
2019-02-24T17:53:20.965Z,-87
2019-02-24T17:55:53.677Z,-87
2019-02-24T17:58:25.556Z,-86
2019-02-24T18:01:02.451Z,-87
2019-02-24T18:03:39.320Z,-86
2019-02-24T18:06:09.757Z,-87
2019-02-24T18:08:42.201Z,-87
2019-02-24T18:11:14.840Z,-86
2019-02-24T18:13:47.606Z,-86
2019-02-24T18:16:19.763Z,-86
2019-02-24T18:18:52.154Z,-86
2019-02-24T18:21:24.065Z,-86
2019-02-24T18:23:56.331Z,-87
2019-02-24T18:26:28.603Z,-86
2019-02-24T18:29:00.570Z,-86
2019-02-24T18:31:32.674Z,-85
2019-02-24T18:34:05.026Z,-86
2019-02-24T18:36:36.854Z,-85
2019-02-24T18:39:09.459Z,-86
2019-02-24T18:41:41.399Z,-87
2019-02-24T18:44:13.959Z,-87
2019-02-24T18:46:45.909Z,-86
2019-02-24T18:49:17.800Z,-87
2019-02-24T18:51:49.612Z,-87
2019-02-24T18:54:21.758Z,-84
2019-02-24T18:56:54.086Z,-85
2019-02-24T18:59:53.391Z,-86
2019-02-24T19:03:02.248Z,-87
2019-02-24T19:10:04.741Z,-88
2019-02-24T19:19:57.195Z,-87
2019-02-24T19:22:29.675Z,-88
2019-02-24T19:25:01.596Z,-88
2019-02-24T19:27:33.448Z,-88
2019-02-24T19:30:06.191Z,-88
2019-02-24T19:32:39.131Z,-88
2019-02-24T19:35:11.783Z,-88
2019-02-24T19:37:43.974Z,-87
2019-02-24T19:40:17.004Z,-88
2019-02-24T19:42:48.837Z,-88
2019-02-24T19:45:22.265Z,-87
2019-02-24T19:47:54.824Z,-83
2019-02-24T19:53:20.975Z,-84
2019-02-24T19:55:54.075Z,-85
2019-02-24T19:58:26.696Z,-84
2019-02-24T20:01:07.507Z,-87
2019-02-24T20:03:39.664Z,-84
2019-02-24T20:06:11.640Z,-82
2019-02-24T20:08:43.476Z,-84
2019-02-24T20:11:15.381Z,-82
2019-02-24T20:13:47.506Z,-84
2019-02-24T20:16:19.789Z,-85
2019-02-24T20:18:52.164Z,-88
2019-02-24T20:21:24.139Z,-83
2019-02-24T20:23:56.393Z,-83
2019-02-24T20:26:31.515Z,-85
2019-02-24T20:29:03.720Z,-86
2019-02-24T20:31:36.545Z,-86
2019-02-24T20:34:12.133Z,-85
2019-02-24T20:36:44.375Z,-84
2019-02-24T20:39:16.228Z,-84
2019-02-24T20:41:49.194Z,-86
2019-02-24T20:44:21.505Z,-85
2019-02-24T20:46:53.658Z,-83
2019-02-24T20:49:25.918Z,-82
2019-02-24T20:52:00.107Z,-83
2019-02-24T20:54:32.125Z,-83
2019-02-24T20:57:43.135Z,-87
2019-02-24T21:00:24.876Z,-88
2019-02-24T21:03:02.435Z,-86
2019-02-24T21:05:34.624Z,-87
2019-02-24T21:08:08.130Z,-86
2019-02-24T21:10:40.092Z,-84
2019-02-24T21:13:12.310Z,-84
2019-02-24T21:15:45.055Z,-85
2019-02-24T21:18:19.729Z,-86
2019-02-24T21:20:52.251Z,-84
2019-02-24T21:23:31.860Z,-85
2019-02-24T21:26:04.166Z,-83
2019-02-24T21:28:39.256Z,-84
2019-02-24T21:31:11.198Z,-84
2019-02-24T21:33:43.350Z,-86
2019-02-24T21:36:15.604Z,-86
2019-02-24T21:38:48.383Z,-85
2019-02-24T21:41:20.536Z,-86
2019-02-24T21:43:53.398Z,-85
2019-02-24T21:46:25.861Z,-86
2019-02-24T21:49:00.404Z,-86
2019-02-24T21:51:32.834Z,-86
2019-02-24T21:54:05.428Z,-87
2019-02-24T21:56:37.597Z,-87
2019-02-24T21:59:09.750Z,-85
2019-02-24T22:01:42.508Z,-85
2019-02-24T22:04:14.694Z,-86
2019-02-24T22:06:46.890Z,-86
2019-02-24T22:09:19.019Z,-86
2019-02-24T22:11:51.191Z,-86
2019-02-24T22:14:23.697Z,-86
2019-02-24T22:16:56.240Z,-86
2019-02-24T22:19:28.738Z,-86
2019-02-24T22:22:00.894Z,-85
2019-02-24T22:24:33.035Z,-85
2019-02-24T22:27:04.887Z,-86
2019-02-24T22:29:37.568Z,-85
2019-02-24T22:32:10.054Z,-85
2019-02-24T22:34:42.410Z,-85
2019-02-24T22:37:14.382Z,-86
2019-02-24T22:39:46.912Z,-85
2019-02-24T22:42:18.953Z,-85
2019-02-24T22:44:50.804Z,-86
2019-02-24T22:47:23.075Z,-85
2019-02-24T22:49:56.328Z,-87
2019-02-24T22:52:28.335Z,-85
2019-02-24T22:55:00.345Z,-85
2019-02-24T22:57:32.686Z,-85
2019-02-24T23:00:08.545Z,-85
2019-02-24T23:02:48.130Z,-86
2019-02-24T23:05:20.795Z,-86
2019-02-24T23:07:53.657Z,-89
2019-02-24T23:10:26.056Z,-89
2019-02-24T23:12:57.930Z,-87
2019-02-24T23:15:32.529Z,-87
2019-02-24T23:18:28.718Z,-86
2019-02-24T23:37:00.901Z,-88
2019-02-24T23:46:23.904Z,-86
2019-02-24T23:48:55.860Z,-84
2019-02-24T23:51:27.721Z,-88
2019-02-24T23:56:56.295Z,-90
2019-02-24T23:59:31.270Z,-87
